createdAt,value
2018-04-10T00:00:53.782Z,6.77
2018-04-10T00:03:21.205Z,7.13
2018-04-10T00:05:48.634Z,5.90
2018-04-10T00:08:16.049Z,8.13
2018-04-10T00:10:43.607Z,7.03
2018-04-10T00:13:11.020Z,6.10
2018-04-10T00:15:38.441Z,8.47
2018-04-10T00:18:05.906Z,6.60
2018-04-10T00:20:33.431Z,7.50
2018-04-10T00:23:00.889Z,6.13
2018-04-10T00:25:28.364Z,7.10
2018-04-10T00:27:56.116Z,11.33
2018-04-10T00:30:23.548Z,6.37
2018-04-10T00:32:51.949Z,10.33
2018-04-10T00:35:19.413Z,6.60
2018-04-10T00:37:47.152Z,7.77
2018-04-10T00:40:14.613Z,6.37
2018-04-10T00:42:42.077Z,6.73
2018-04-10T00:45:09.509Z,6.73
2018-04-10T00:47:36.988Z,7.10
2018-04-10T00:50:04.409Z,7.87
2018-04-10T00:52:31.833Z,7.73
2018-04-10T00:54:59.258Z,6.20
2018-04-10T00:57:26.819Z,7.97
2018-04-10T00:59:54.234Z,8.03
2018-04-10T01:02:21.730Z,6.73
2018-04-10T01:04:49.149Z,7.60
2018-04-10T01:07:16.577Z,6.83
2018-04-10T01:09:44.101Z,7.43
2018-04-10T01:12:11.554Z,7.33
2018-04-10T01:14:38.973Z,8.90
2018-04-10T01:17:06.402Z,7.80
2018-04-10T01:19:33.817Z,7.77
2018-04-10T01:22:01.282Z,7.50
2018-04-10T01:24:28.729Z,6.13
2018-04-10T01:26:56.294Z,7.50
2018-04-10T01:29:23.709Z,7.53
2018-04-10T01:31:51.142Z,7.93
2018-04-10T01:34:18.563Z,9.83
2018-04-10T01:36:45.993Z,9.10
2018-04-10T01:39:13.568Z,7.33
2018-04-10T01:41:41.025Z,7.93
2018-04-10T01:44:08.482Z,7.47
2018-04-10T01:46:35.902Z,9.43
2018-04-10T01:49:03.324Z,7.03
2018-04-10T01:51:30.864Z,7.07
2018-04-10T01:53:58.315Z,8.27
2018-04-10T01:56:25.941Z,8.03
2018-04-10T01:58:53.521Z,6.90
2018-04-10T02:01:20.981Z,7.17
2018-04-10T02:03:48.414Z,6.87
2018-04-10T02:06:15.830Z,7.53
2018-04-10T02:08:43.263Z,7.33
2018-04-10T02:11:10.813Z,7.40
2018-04-10T02:13:38.617Z,7.60
2018-04-10T02:16:06.646Z,7.33
2018-04-10T02:18:34.095Z,6.43
2018-04-10T02:21:01.552Z,6.23
2018-04-10T02:23:28.977Z,6.13
2018-04-10T02:25:56.397Z,6.90
2018-04-10T02:28:23.833Z,6.87
2018-04-10T02:30:51.268Z,7.00
2018-04-10T02:33:18.689Z,8.60
2018-04-10T02:35:46.877Z,7.40
2018-04-10T02:38:14.757Z,6.07
2018-04-10T02:40:42.309Z,7.23
2018-04-10T02:43:09.761Z,6.00
2018-04-10T02:45:37.339Z,6.00
2018-04-10T02:48:04.803Z,7.17
2018-04-10T02:50:32.216Z,5.70
2018-04-10T02:52:59.645Z,6.90
2018-04-10T02:55:27.178Z,6.83
2018-04-10T02:57:54.605Z,8.90
2018-04-10T03:00:22.026Z,6.47
2018-04-10T03:02:49.449Z,6.93
2018-04-10T03:05:16.998Z,6.03
2018-04-10T03:07:44.604Z,5.30
2018-04-10T03:10:12.086Z,7.10
2018-04-10T03:12:39.577Z,7.03
2018-04-10T03:15:07.042Z,7.33
2018-04-10T03:17:34.494Z,6.60
2018-04-10T03:20:01.973Z,6.17
2018-04-10T03:22:29.494Z,6.40
2018-04-10T03:24:56.933Z,8.70
2018-04-10T03:27:24.354Z,8.87
2018-04-10T03:29:52.729Z,7.37
2018-04-10T03:32:20.151Z,7.73
2018-04-10T03:34:47.695Z,6.10
2018-04-10T03:37:15.117Z,7.97
2018-04-10T03:39:42.555Z,7.30
2018-04-10T03:42:10.066Z,7.13
2018-04-10T03:44:37.521Z,7.47
2018-04-10T03:47:04.949Z,7.57
2018-04-10T03:49:32.376Z,6.93
2018-04-10T03:51:59.810Z,7.10
2018-04-10T03:54:27.292Z,7.07
2018-04-10T03:56:54.809Z,7.80
2018-04-10T03:59:22.241Z,7.57
2018-04-10T04:01:49.717Z,7.80
2018-04-10T04:04:17.177Z,6.47
2018-04-10T04:06:44.648Z,9.47
2018-04-10T04:09:12.078Z,7.70
2018-04-10T04:11:39.493Z,7.60
2018-04-10T04:14:06.926Z,8.67
2018-04-10T04:16:46.436Z,8.50
2018-04-10T04:19:25.866Z,8.57
2018-04-10T04:22:07.078Z,9.30
2018-04-10T04:24:34.607Z,11.90
2018-04-10T04:27:02.065Z,7.47
2018-04-10T04:29:29.489Z,9.30
2018-04-10T04:31:56.978Z,7.70
2018-04-10T04:34:24.433Z,13.07
2018-04-10T04:36:51.870Z,7.77
2018-04-10T04:39:19.293Z,7.03
2018-04-10T04:41:46.713Z,8.30
2018-04-10T04:44:14.180Z,8.20
2018-04-10T04:46:41.610Z,10.27
2018-04-10T04:49:09.170Z,10.00
2018-04-10T04:51:36.631Z,10.93
2018-04-10T04:54:04.084Z,13.43
2018-04-10T04:56:31.508Z,11.33
2018-04-10T04:58:58.932Z,7.50
2018-04-10T05:01:26.353Z,7.50
2018-04-10T05:03:53.793Z,6.70
2018-04-10T05:06:21.364Z,9.30
2018-04-10T05:08:49.002Z,9.70
2018-04-10T05:11:16.456Z,9.00
2018-04-10T05:13:43.901Z,8.77
2018-04-10T05:16:12.074Z,8.37
2018-04-10T05:18:39.561Z,10.80
2018-04-10T05:21:06.985Z,11.10
2018-04-10T05:23:34.413Z,10.10
2018-04-10T05:26:01.842Z,8.10
2018-04-10T05:28:29.398Z,8.90
2018-04-10T05:30:56.846Z,11.67
2018-04-10T05:33:24.305Z,8.43
2018-04-10T05:35:51.771Z,10.43
2018-04-10T05:38:19.204Z,7.70
2018-04-10T05:40:46.625Z,10.20
2018-04-10T05:43:14.133Z,9.50
2018-04-10T05:45:41.593Z,10.20
2018-04-10T05:48:09.013Z,8.17
2018-04-10T05:50:36.457Z,8.53
2018-04-10T05:53:03.899Z,7.73
2018-04-10T05:55:31.361Z,9.07
2018-04-10T05:57:58.787Z,9.73
2018-04-10T06:00:26.233Z,16.93
2018-04-10T06:02:53.773Z,8.97
2018-04-10T06:05:21.220Z,9.17
2018-04-10T06:07:48.636Z,10.27
2018-04-10T06:10:16.057Z,12.13
2018-04-10T06:12:43.481Z,11.17
2018-04-10T06:15:11.001Z,7.80
2018-04-10T06:17:38.413Z,8.67
2018-04-10T06:20:05.843Z,10.10
2018-04-10T06:22:33.333Z,7.90
2018-04-10T06:25:00.881Z,13.90
2018-04-10T06:27:28.304Z,10.03
2018-04-10T06:29:55.801Z,9.67
2018-04-10T06:32:23.222Z,11.43
2018-04-10T06:34:50.654Z,10.17
2018-04-10T06:37:18.091Z,9.07
2018-04-10T06:39:45.497Z,9.33
2018-04-10T06:42:12.922Z,8.73
2018-04-10T06:44:40.337Z,10.07
2018-04-10T06:47:07.762Z,8.43
2018-04-10T06:49:35.469Z,8.83
2018-04-10T06:52:03.217Z,7.93
2018-04-10T06:54:30.633Z,8.87
2018-04-10T06:56:58.061Z,8.50
2018-04-10T06:59:25.501Z,19.30
2018-04-10T07:01:52.956Z,8.57
2018-04-10T07:04:20.377Z,8.27
2018-04-10T07:06:47.859Z,9.63
2018-04-10T07:09:15.309Z,10.40
2018-04-10T07:11:42.741Z,8.27
2018-04-10T07:14:10.325Z,8.47
2018-04-10T07:16:37.777Z,8.97
2018-04-10T07:19:05.194Z,8.70
2018-04-10T07:21:32.629Z,12.00
2018-04-10T07:24:00.050Z,8.17
2018-04-10T07:26:27.468Z,8.83
2018-04-10T07:28:55.002Z,9.73
2018-04-10T07:31:22.513Z,8.90
2018-04-10T07:33:49.966Z,9.13
2018-04-10T07:36:17.397Z,8.40
2018-04-10T07:38:44.809Z,8.57
2018-04-10T07:41:12.342Z,9.33
2018-04-10T07:43:39.792Z,7.97
2018-04-10T07:46:07.263Z,9.53
2018-04-10T07:48:35.013Z,7.40
2018-04-10T07:51:02.429Z,7.40
2018-04-10T07:53:29.873Z,7.10
2018-04-10T07:55:58.301Z,8.20
2018-04-10T07:58:25.727Z,7.97
2018-04-10T08:00:53.234Z,7.50
2018-04-10T08:03:20.674Z,8.33
2018-04-10T08:05:48.097Z,10.00
2018-04-10T08:08:15.513Z,8.37
2018-04-10T08:10:43.046Z,9.03
2018-04-10T08:13:10.456Z,9.00
2018-04-10T08:15:37.877Z,9.83
2018-04-10T08:18:05.297Z,8.87
2018-04-10T08:20:33.786Z,10.47
2018-04-10T08:23:01.241Z,12.13
2018-04-10T08:25:28.677Z,10.03
2018-04-10T08:27:56.156Z,8.90
2018-04-10T08:30:23.584Z,8.43
2018-04-10T08:32:50.997Z,7.83
2018-04-10T08:35:18.526Z,8.70
2018-04-10T08:37:46.812Z,9.20
2018-04-10T08:40:14.306Z,6.70
2018-04-10T08:42:41.728Z,8.53
2018-04-10T08:45:09.147Z,8.20
2018-04-10T08:47:36.589Z,8.80
2018-04-10T08:50:04.797Z,8.63
2018-04-10T08:52:32.216Z,8.50
2018-04-10T08:54:59.710Z,7.37
2018-04-10T08:57:27.122Z,6.73
2018-04-10T08:59:54.554Z,7.77
2018-04-10T09:02:21.977Z,7.00
2018-04-10T09:04:49.409Z,10.03
2018-04-10T09:07:16.988Z,8.47
2018-04-10T09:09:44.448Z,7.90
2018-04-10T09:12:11.874Z,12.40
2018-04-10T09:14:39.311Z,9.07
2018-04-10T09:17:06.817Z,8.50
2018-04-10T09:19:34.249Z,10.93
2018-04-10T09:22:01.674Z,7.90
2018-04-10T09:24:29.177Z,7.80
2018-04-10T09:26:56.646Z,7.70
2018-04-10T09:29:24.103Z,8.43
2018-04-10T09:31:51.550Z,8.47
2018-04-10T09:34:18.990Z,6.40
2018-04-10T09:36:46.400Z,8.00
2018-04-10T09:39:13.850Z,5.13
2018-04-10T09:41:41.286Z,4.70
2018-04-10T09:44:08.705Z,4.80
2018-04-10T09:46:36.289Z,6.30
2018-04-10T09:49:03.716Z,8.20
2018-04-10T09:51:31.202Z,4.90
2018-04-10T09:53:58.662Z,4.43
2018-04-10T09:56:26.110Z,4.83
2018-04-10T09:58:53.586Z,7.70
2018-04-10T10:01:21.001Z,4.63
2018-04-10T10:03:48.422Z,4.70
2018-04-10T10:06:15.861Z,4.97
2018-04-10T10:08:43.290Z,6.10
2018-04-10T10:11:10.858Z,9.47
2018-04-10T10:13:38.277Z,5.30
2018-04-10T10:16:05.717Z,4.87
2018-04-10T10:18:33.127Z,5.93
2018-04-10T10:21:00.679Z,4.80
2018-04-10T10:23:28.097Z,6.43
2018-04-10T10:25:55.592Z,9.27
2018-04-10T10:28:23.002Z,6.60
2018-04-10T10:30:50.426Z,6.03
2018-04-10T10:33:17.856Z,6.17
2018-04-10T10:35:45.415Z,8.97
2018-04-10T10:38:12.876Z,10.33
2018-04-10T10:40:40.292Z,7.67
2018-04-10T10:43:07.705Z,6.73
2018-04-10T10:45:35.142Z,7.20
2018-04-10T10:48:02.610Z,8.73
2018-04-10T10:50:30.101Z,6.90
2018-04-10T10:52:57.518Z,4.47
2018-04-10T10:55:24.933Z,4.03
2018-04-10T10:57:52.518Z,7.07
2018-04-10T11:00:19.946Z,5.00
2018-04-10T11:02:47.362Z,5.13
2018-04-10T11:05:14.792Z,4.17
2018-04-10T11:07:42.254Z,3.93
2018-04-10T11:10:09.749Z,7.80
2018-04-10T11:12:37.161Z,5.87
2018-04-10T11:15:04.626Z,4.60
2018-04-10T11:17:32.039Z,3.97
2018-04-10T11:20:00.255Z,3.67
2018-04-10T11:22:27.661Z,5.47
2018-04-10T11:24:55.161Z,4.53
2018-04-10T11:27:22.574Z,4.13
2018-04-10T11:29:50.985Z,3.97
2018-04-10T11:32:18.398Z,4.63
2018-04-10T11:34:45.919Z,3.83
2018-04-10T11:37:13.325Z,4.20
2018-04-10T11:39:40.819Z,3.57
2018-04-10T11:42:08.243Z,4.80
2018-04-10T11:44:35.653Z,2.53
2018-04-10T11:47:03.187Z,3.27
2018-04-10T11:49:30.643Z,3.10
2018-04-10T11:51:58.097Z,2.80
2018-04-10T11:54:25.510Z,3.13
2018-04-10T11:56:52.934Z,4.23
2018-04-10T11:59:20.353Z,3.07
2018-04-10T12:01:47.926Z,3.90
2018-04-10T12:04:15.345Z,3.00
2018-04-10T12:06:42.841Z,4.30
2018-04-10T12:09:10.257Z,3.77
2018-04-10T12:11:37.749Z,2.77
2018-04-10T12:14:05.209Z,2.67
2018-04-10T12:16:32.661Z,3.73
2018-04-10T12:19:00.117Z,3.83
2018-04-10T12:21:27.570Z,3.57
2018-04-10T12:23:54.966Z,3.43
2018-04-10T12:26:22.389Z,3.43
2018-04-10T12:28:49.987Z,3.63
2018-04-10T12:31:17.706Z,2.57
2018-04-10T12:33:45.366Z,8.37
2018-04-10T12:36:12.845Z,3.03
2018-04-10T12:38:40.260Z,4.27
2018-04-10T12:41:07.715Z,3.30
2018-04-10T12:43:35.166Z,2.57
2018-04-10T12:46:02.658Z,3.40
2018-04-10T12:48:30.077Z,2.03
2018-04-10T12:50:57.534Z,4.17
2018-04-10T12:53:24.945Z,3.20
2018-04-10T12:55:52.482Z,2.40
2018-04-10T12:58:19.901Z,2.87
2018-04-10T13:00:47.325Z,2.00
2018-04-10T13:03:14.737Z,2.33
2018-04-10T13:05:42.816Z,3.10
2018-04-10T13:08:10.233Z,3.40
2018-04-10T13:10:38.414Z,4.00
2018-04-10T13:13:05.844Z,2.47
2018-04-10T13:15:33.258Z,3.73
2018-04-10T13:18:00.691Z,4.40
2018-04-10T13:20:28.118Z,3.10
2018-04-10T13:22:55.533Z,2.60
2018-04-10T13:25:22.945Z,3.30
2018-04-10T13:27:50.361Z,3.00
2018-04-10T13:30:17.781Z,3.17
2018-04-10T13:32:45.209Z,2.50
2018-04-10T13:35:12.641Z,2.77
2018-04-10T13:37:40.096Z,2.90
2018-04-10T13:40:08.277Z,5.20
2018-04-10T13:42:35.702Z,5.13
2018-04-10T13:45:03.122Z,4.57
2018-04-10T13:47:30.546Z,3.00
2018-04-10T13:49:58.738Z,2.77
2018-04-10T13:52:26.225Z,2.40
2018-04-10T13:54:53.646Z,3.13
2018-04-10T13:57:21.070Z,2.90
2018-04-10T13:59:48.587Z,3.00
2018-04-10T14:02:16.020Z,2.90
2018-04-10T14:04:43.433Z,2.50
2018-04-10T14:07:10.865Z,3.20
2018-04-10T14:09:38.309Z,3.00
2018-04-10T14:12:05.865Z,2.73
2018-04-10T14:14:33.273Z,2.70
2018-04-10T14:17:00.698Z,3.00
2018-04-10T14:19:28.117Z,6.10
2018-04-10T14:21:56.306Z,3.50
2018-04-10T14:24:23.726Z,2.80
2018-04-10T14:26:51.146Z,4.20
2018-04-10T14:29:18.672Z,2.67
2018-04-10T14:31:46.145Z,3.23
2018-04-10T14:34:13.508Z,3.60
2018-04-10T14:36:40.950Z,2.60
2018-04-10T14:39:08.395Z,4.37
2018-04-10T14:41:35.869Z,3.17
2018-04-10T14:44:03.319Z,2.90
2018-04-10T14:46:30.863Z,5.73
2018-04-10T14:48:58.281Z,3.13
2018-04-10T14:51:25.778Z,2.83
2018-04-10T14:53:53.184Z,3.30
2018-04-10T14:56:20.625Z,3.23
2018-04-10T14:58:48.044Z,4.10
2018-04-10T15:01:15.457Z,3.20
2018-04-10T15:03:43.638Z,7.50
2018-04-10T15:06:11.134Z,4.70
2018-04-10T15:08:38.557Z,4.53
2018-04-10T15:11:05.976Z,3.40
2018-04-10T15:13:33.503Z,6.47
2018-04-10T15:16:00.957Z,3.80
2018-04-10T15:18:29.156Z,3.20
2018-04-10T15:20:56.701Z,3.27
2018-04-10T15:23:24.251Z,4.27
2018-04-10T15:25:51.661Z,3.50
2018-04-10T15:28:19.153Z,4.17
2018-04-10T15:30:46.617Z,5.30
2018-04-10T15:33:14.083Z,4.20
2018-04-10T15:35:41.586Z,3.80
2018-04-10T15:38:09.285Z,4.10
2018-04-10T15:40:36.701Z,4.00
2018-04-10T15:43:04.202Z,3.33
2018-04-10T15:45:31.618Z,7.17
2018-04-10T15:47:59.852Z,5.80
2018-04-10T15:50:27.255Z,4.73
2018-04-10T15:52:54.863Z,3.83
2018-04-10T15:55:22.288Z,4.63
2018-04-10T15:57:49.704Z,6.70
2018-04-10T16:00:17.124Z,6.87
2018-04-10T16:02:44.610Z,2.57
2018-04-10T16:05:11.977Z,2.43
2018-04-10T16:07:39.602Z,6.10
2018-04-10T16:10:07.155Z,3.80
2018-04-10T16:12:34.786Z,2.37
2018-04-10T16:15:02.226Z,2.70
2018-04-10T16:17:30.431Z,4.17
2018-04-10T16:19:57.854Z,3.03
2018-04-10T16:22:25.265Z,5.00
2018-04-10T16:24:52.744Z,3.67
2018-04-10T16:27:20.254Z,4.23
2018-04-10T16:29:47.677Z,2.57
2018-04-10T16:32:15.094Z,3.00
2018-04-10T16:34:42.540Z,13.40
2018-04-10T16:37:10.077Z,6.30
2018-04-10T16:39:37.537Z,3.50
2018-04-10T16:42:04.958Z,9.73
2018-04-10T16:44:32.454Z,11.83
2018-04-10T16:46:59.880Z,10.93
2018-04-10T16:49:27.323Z,15.13
2018-04-10T16:51:54.739Z,5.93
2018-04-10T16:54:22.177Z,5.30
2018-04-10T16:56:49.609Z,10.50
2018-04-10T16:59:17.056Z,1.83
2018-04-10T17:01:45.255Z,5.63
2018-04-10T17:04:12.692Z,2.70
2018-04-10T17:06:40.208Z,8.50
2018-04-10T17:09:07.817Z,8.27
2018-04-10T17:11:35.237Z,2.03
2018-04-10T17:14:03.481Z,4.63
2018-04-10T17:16:30.910Z,2.87
2018-04-10T17:18:58.481Z,8.77
2018-04-10T17:21:26.484Z,6.67
2018-04-10T17:23:54.592Z,3.10
2018-04-10T17:26:22.021Z,8.40
2018-04-10T17:28:49.597Z,2.30
2018-04-10T17:31:17.799Z,3.70
2018-04-10T17:33:45.230Z,2.07
2018-04-10T17:36:12.719Z,3.33
2018-04-10T17:38:40.381Z,1.97
2018-04-10T17:41:07.960Z,2.90
2018-04-10T17:43:35.374Z,2.13
2018-04-10T17:46:02.796Z,3.03
2018-04-10T17:48:30.226Z,2.13
2018-04-10T17:50:57.766Z,1.40
2018-04-10T17:53:25.193Z,3.47
2018-04-10T17:55:52.622Z,1.97
2018-04-10T17:58:20.049Z,2.13
2018-04-10T18:00:47.503Z,5.07
2018-04-10T18:03:14.924Z,1.73
2018-04-10T18:05:42.515Z,2.13
2018-04-10T18:08:09.913Z,2.43
2018-04-10T18:10:37.406Z,3.07
2018-04-10T18:13:04.838Z,1.93
2018-04-10T18:15:32.330Z,1.70
2018-04-10T18:17:59.964Z,3.00
2018-04-10T18:20:27.536Z,5.90
2018-04-10T18:22:54.968Z,4.03
2018-04-10T18:25:22.390Z,1.80
2018-04-10T18:27:49.917Z,5.37
2018-04-10T18:30:17.701Z,2.27
2018-04-10T18:32:45.106Z,2.10
2018-04-10T18:35:12.539Z,8.23
2018-04-10T18:37:40.153Z,2.83
2018-04-10T18:40:07.668Z,1.97
2018-04-10T18:42:35.881Z,3.17
2018-04-10T18:45:03.296Z,1.73
2018-04-10T18:47:31.654Z,2.80
2018-04-10T18:49:59.846Z,4.43
2018-04-10T18:52:27.417Z,1.83
2018-04-10T18:54:55.830Z,2.27
2018-04-10T18:57:23.243Z,2.20
2018-04-10T18:59:51.430Z,2.17
2018-04-10T19:02:18.862Z,1.90
2018-04-10T19:04:46.286Z,1.50
2018-04-10T19:07:13.821Z,2.27
2018-04-10T19:09:41.284Z,1.83
2018-04-10T19:12:08.701Z,1.93
2018-04-10T19:14:36.130Z,1.67
2018-04-10T19:17:03.553Z,2.20
2018-04-10T19:19:31.102Z,1.60
2018-04-10T19:21:58.554Z,6.40
2018-04-10T19:24:25.985Z,1.77
2018-04-10T19:26:53.409Z,2.10
2018-04-10T19:29:21.893Z,1.90
2018-04-10T19:31:49.274Z,1.63
2018-04-10T19:34:16.756Z,2.57
2018-04-10T19:36:44.178Z,1.97
2018-04-10T19:39:11.596Z,2.03
2018-04-10T19:41:39.025Z,2.20
2018-04-10T19:44:06.578Z,1.97
2018-04-10T19:46:34.002Z,2.50
2018-04-10T19:49:01.499Z,2.63
2018-04-10T19:51:28.930Z,2.10
2018-04-10T19:53:57.932Z,4.67
2018-04-10T19:56:25.411Z,2.27
2018-04-10T19:58:52.856Z,2.17
2018-04-10T20:01:20.338Z,2.10
2018-04-10T20:03:47.831Z,4.37
2018-04-10T20:06:15.370Z,2.10
2018-04-10T20:08:42.993Z,2.87
2018-04-10T20:11:10.425Z,2.50
2018-04-10T20:13:37.848Z,2.00
2018-04-10T20:16:05.273Z,2.23
2018-04-10T20:18:32.708Z,2.13
2018-04-10T20:21:00.142Z,2.43
2018-04-10T20:23:27.723Z,2.03
2018-04-10T20:25:55.140Z,2.00
2018-04-10T20:28:22.643Z,2.70
2018-04-10T20:30:50.088Z,2.40
2018-04-10T20:33:17.504Z,2.43
2018-04-10T20:35:45.009Z,2.27
2018-04-10T20:38:12.430Z,3.20
2018-04-10T20:40:39.919Z,2.50
2018-04-10T20:43:07.338Z,2.60
2018-04-10T20:45:34.838Z,2.33
2018-04-10T20:48:02.265Z,2.90
2018-04-10T20:50:29.693Z,2.33
2018-04-10T20:52:57.201Z,1.67
2018-04-10T20:55:24.662Z,2.10
2018-04-10T20:57:52.085Z,1.90
2018-04-10T21:00:19.502Z,2.20
2018-04-10T21:02:46.938Z,3.17
2018-04-10T21:05:14.388Z,2.20
2018-04-10T21:07:41.888Z,1.83
2018-04-10T21:10:09.303Z,1.80
2018-04-10T21:12:36.853Z,1.80
2018-04-10T21:15:04.317Z,2.00
2018-04-10T21:17:31.766Z,2.00
2018-04-10T21:19:59.189Z,2.70
2018-04-10T21:22:26.675Z,2.70
2018-04-10T21:24:54.090Z,2.43
2018-04-10T21:27:21.517Z,2.20
2018-04-10T21:29:48.946Z,3.90
2018-04-10T21:32:16.492Z,1.87
2018-04-10T21:34:43.922Z,2.50
2018-04-10T21:37:11.376Z,2.10
2018-04-10T21:39:38.864Z,6.70
2018-04-10T21:42:07.247Z,3.40
2018-04-10T21:44:34.661Z,3.90
2018-04-10T21:47:02.158Z,5.97
2018-04-10T21:49:29.617Z,3.40
2018-04-10T21:51:57.037Z,3.97
2018-04-10T21:54:24.529Z,4.13
2018-04-10T21:56:51.947Z,3.00
2018-04-10T21:59:19.440Z,3.10
2018-04-10T22:01:46.865Z,2.43
2018-04-10T22:04:14.302Z,2.50
2018-04-10T22:06:41.733Z,2.63
2018-04-10T22:09:09.262Z,3.03
2018-04-10T22:11:36.717Z,2.43
2018-04-10T22:14:04.166Z,4.00
2018-04-10T22:16:31.633Z,4.07
2018-04-10T22:18:59.061Z,4.20
2018-04-10T22:21:26.494Z,4.93
2018-04-10T22:23:54.005Z,4.60
2018-04-10T22:26:21.421Z,5.10
2018-04-10T22:28:48.914Z,4.40
2018-04-10T22:31:16.372Z,4.23
2018-04-10T22:33:43.782Z,5.20
2018-04-10T22:36:11.203Z,4.50
2018-04-10T22:38:38.707Z,5.20
2018-04-10T22:41:06.173Z,3.77
2018-04-10T22:43:33.582Z,3.37
2018-04-10T22:46:01.018Z,5.60
2018-04-10T22:48:28.539Z,4.50
2018-04-10T22:50:55.975Z,3.67
2018-04-10T22:53:23.398Z,3.60
2018-04-10T22:55:50.825Z,3.70
2018-04-10T22:58:18.258Z,3.60
2018-04-10T23:00:49.505Z,5.80
2018-04-10T23:03:16.962Z,3.13
2018-04-10T23:05:44.398Z,4.00
2018-04-10T23:08:11.825Z,3.80
2018-04-10T23:10:39.249Z,4.53
2018-04-10T23:13:06.738Z,4.00
2018-04-10T23:15:34.175Z,6.20
2018-04-10T23:18:01.678Z,5.80
2018-04-10T23:20:29.182Z,3.47
2018-04-10T23:22:56.611Z,4.97
2018-04-10T23:25:24.098Z,3.90
2018-04-10T23:27:51.530Z,6.23
2018-04-10T23:30:18.950Z,4.30
2018-04-10T23:32:46.482Z,4.20
2018-04-10T23:35:13.889Z,4.83
2018-04-10T23:37:41.382Z,5.10
2018-04-10T23:40:08.805Z,6.13
2018-04-10T23:42:36.237Z,5.07
2018-04-10T23:45:03.651Z,5.73
2018-04-10T23:47:31.218Z,5.33
2018-04-10T23:49:58.637Z,5.37
2018-04-10T23:52:26.057Z,4.97
2018-04-10T23:54:53.580Z,5.40
2018-04-10T23:57:21.051Z,4.60
2018-04-10T23:59:48.470Z,5.77
